createdAt,value
2022-08-19T00:02:17.021Z,4.72
2022-08-19T00:04:47.885Z,3.42
2022-08-19T00:07:15.419Z,4.72
2022-08-19T00:09:43.071Z,6.53
2022-08-19T00:12:11.513Z,4.55
2022-08-19T00:14:39.601Z,5.28
2022-08-19T00:17:09.360Z,3.45
2022-08-19T00:19:38.121Z,4.68
2022-08-19T00:22:06.977Z,4.40
2022-08-19T00:24:34.491Z,4.65
2022-08-19T00:27:26.126Z,6.38
2022-08-19T00:29:52.700Z,5.95
2022-08-19T00:32:21.559Z,5.05
2022-08-19T00:34:49.138Z,3.85
2022-08-19T00:37:16.733Z,4.18
2022-08-19T00:39:44.326Z,5.20
2022-08-19T00:42:15.787Z,4.63
2022-08-19T00:44:44.407Z,5.32
2022-08-19T00:47:14.254Z,5.47
2022-08-19T00:49:49.670Z,4.60
2022-08-19T00:52:23.966Z,5.07
2022-08-19T00:54:53.734Z,5.25
2022-08-19T00:57:29.386Z,7.03
2022-08-19T01:00:02.616Z,4.93
2022-08-19T01:02:31.748Z,7.50
2022-08-19T01:05:00.753Z,5.53
2022-08-19T01:07:28.425Z,5.38
2022-08-19T01:10:04.102Z,6.40
2022-08-19T01:12:32.304Z,7.35
2022-08-19T01:15:00.942Z,5.00
2022-08-19T01:17:29.216Z,3.80
2022-08-19T01:19:57.072Z,6.07
2022-08-19T01:22:30.103Z,4.50
2022-08-19T01:25:00.599Z,4.93
2022-08-19T01:27:30.804Z,4.65
2022-08-19T01:30:13.552Z,5.78
2022-08-19T01:32:41.195Z,7.18
2022-08-19T01:35:09.798Z,7.45
2022-08-19T01:37:52.396Z,5.95
2022-08-19T01:40:21.770Z,7.90
2022-08-19T01:42:50.936Z,6.07
2022-08-19T01:45:20.945Z,6.45
2022-08-19T01:47:55.587Z,4.90
2022-08-19T01:50:32.282Z,6.35
2022-08-19T01:53:05.871Z,7.40
2022-08-19T01:55:40.959Z,5.47
2022-08-19T01:58:23.941Z,6.03
2022-08-19T02:00:51.572Z,6.38
2022-08-19T02:03:19.162Z,5.82
2022-08-19T02:05:46.937Z,8.90
2022-08-19T02:08:14.707Z,6.00
2022-08-19T02:10:45.002Z,6.32
2022-08-19T02:13:14.359Z,7.18
2022-08-19T02:15:42.348Z,5.00
2022-08-19T02:18:10.218Z,5.75
2022-08-19T02:20:39.856Z,4.90
2022-08-19T02:23:13.993Z,3.83
2022-08-19T02:25:45.704Z,4.43
2022-08-19T02:28:17.921Z,4.22
2022-08-19T02:30:47.695Z,4.32
2022-08-19T02:33:16.325Z,3.83
2022-08-19T02:35:48.317Z,4.15
2022-08-19T02:38:28.665Z,5.15
2022-08-19T02:41:04.632Z,5.80
2022-08-19T02:43:39.850Z,5.05
2022-08-19T02:46:30.308Z,4.55
2022-08-19T02:49:01.161Z,7.65
2022-08-19T02:51:37.598Z,5.85
2022-08-19T02:54:06.587Z,5.90
2022-08-19T02:56:37.372Z,7.30
2022-08-19T02:59:13.176Z,5.22
2022-08-19T03:01:43.341Z,7.78
2022-08-19T03:04:13.974Z,6.47
2022-08-19T03:06:44.919Z,6.25
2022-08-19T03:09:13.561Z,6.13
2022-08-19T03:11:41.442Z,8.40
2022-08-19T03:14:10.167Z,8.07
2022-08-19T03:16:50.202Z,8.07
2022-08-19T03:19:19.711Z,9.05
2022-08-19T03:21:47.567Z,6.88
2022-08-19T03:24:16.703Z,6.22
2022-08-19T03:26:48.375Z,7.00
2022-08-19T03:29:18.266Z,6.80
2022-08-19T03:31:58.194Z,5.78
2022-08-19T03:34:28.812Z,5.15
2022-08-19T03:37:01.848Z,4.25
2022-08-19T03:39:29.700Z,6.28
2022-08-19T03:42:38.858Z,5.57
2022-08-19T03:44:46.207Z,5.75
2022-08-19T03:47:17.358Z,5.07
2022-08-19T03:49:45.454Z,4.72
2022-08-19T11:33:58.946Z,17.95
2022-08-19T11:36:27.333Z,14.60
2022-08-19T11:38:55.456Z,18.95
2022-08-19T11:41:24.870Z,12.95
2022-08-19T11:43:56.397Z,13.90
2022-08-19T11:46:26.202Z,13.63
2022-08-19T11:48:54.275Z,11.50
2022-08-19T11:51:25.808Z,10.15
2022-08-19T11:53:57.124Z,10.38
2022-08-19T11:56:25.365Z,10.03
2022-08-19T11:58:53.990Z,9.38
2022-08-19T12:01:23.748Z,10.80
2022-08-19T12:03:53.207Z,9.48
2022-08-19T12:06:29.865Z,9.82
2022-08-19T12:08:58.638Z,9.65
2022-08-19T12:11:26.976Z,9.02
2022-08-19T12:13:55.545Z,11.07
2022-08-19T12:16:28.017Z,9.50
2022-08-19T12:18:56.954Z,11.00
2022-08-19T12:21:29.082Z,10.77
2022-08-19T12:23:58.705Z,10.82
2022-08-19T12:26:27.724Z,10.00
2022-08-19T12:28:56.068Z,11.27
2022-08-19T12:31:23.726Z,11.63
2022-08-19T12:33:52.479Z,11.15
2022-08-19T12:36:20.090Z,12.32
2022-08-19T12:38:48.051Z,14.43
2022-08-19T12:41:19.452Z,12.98
2022-08-19T12:43:50.373Z,13.38
2022-08-19T12:46:19.673Z,22.67
2022-08-19T12:48:54.065Z,22.52
2022-08-19T12:51:23.016Z,25.77
2022-08-19T12:53:51.153Z,19.50
2022-08-19T12:56:23.258Z,21.98
2022-08-19T12:58:53.061Z,25.73
2022-08-19T13:01:23.104Z,18.13
2022-08-19T13:03:53.683Z,17.58
2022-08-19T13:06:22.690Z,17.88
2022-08-19T13:08:50.181Z,21.92
2022-08-19T13:11:20.876Z,15.82
2022-08-19T13:13:52.115Z,18.08
2022-08-19T13:16:21.508Z,18.50
2022-08-19T13:18:49.537Z,19.10
2022-08-19T13:21:17.221Z,16.98
2022-08-19T13:23:44.882Z,15.98
2022-08-19T13:26:13.994Z,18.38
2022-08-19T13:29:01.198Z,17.20
2022-08-19T13:31:49.204Z,15.25
2022-08-19T13:34:18.986Z,14.95
2022-08-19T13:36:46.888Z,13.23
2022-08-19T13:39:14.556Z,13.07
2022-08-19T13:41:49.852Z,15.25
2022-08-19T13:44:21.451Z,13.35
2022-08-19T13:46:53.877Z,9.68
2022-08-19T13:49:21.865Z,11.95
2022-08-19T13:51:49.570Z,11.88
2022-08-19T13:54:17.071Z,14.40
2022-08-19T13:56:46.180Z,15.23
2022-08-19T13:59:14.021Z,15.10
2022-08-19T14:01:42.500Z,15.35
2022-08-19T14:04:10.732Z,12.65
2022-08-19T14:06:38.375Z,13.57
2022-08-19T14:09:06.816Z,14.02
2022-08-19T14:11:34.363Z,20.27
2022-08-19T14:14:01.833Z,16.05
2022-08-19T14:16:31.525Z,12.43
2022-08-19T14:18:59.253Z,10.18
2022-08-19T14:21:26.860Z,9.10
2022-08-19T14:23:54.955Z,9.85
2022-08-19T14:26:25.271Z,12.40
2022-08-19T14:28:54.015Z,8.60
2022-08-19T14:31:22.596Z,9.73
2022-08-19T14:33:51.731Z,9.00
2022-08-19T14:36:21.480Z,7.85
2022-08-19T14:38:50.169Z,9.35
2022-08-19T14:41:23.376Z,6.78
2022-08-19T14:43:53.395Z,7.30
2022-08-19T14:46:28.049Z,7.78
2022-08-19T14:48:57.059Z,9.18
2022-08-19T14:51:28.270Z,7.80
2022-08-19T14:53:55.931Z,8.82
2022-08-19T14:56:27.320Z,10.93
2022-08-19T14:58:55.419Z,12.98
2022-08-19T15:01:24.001Z,11.75
2022-08-19T15:03:54.226Z,13.35
2022-08-19T15:06:23.484Z,13.80
2022-08-19T15:08:52.858Z,13.25
2022-08-19T15:11:24.037Z,13.05
2022-08-19T15:13:52.328Z,12.87
2022-08-19T15:16:20.463Z,11.75
2022-08-19T15:18:51.260Z,14.70
2022-08-19T15:21:26.618Z,16.35
2022-08-19T15:23:56.989Z,14.20
2022-08-19T15:26:26.884Z,11.85
2022-08-19T15:28:54.723Z,11.40
2022-08-19T15:31:27.973Z,11.40
2022-08-19T15:33:58.942Z,12.95
2022-08-19T15:36:28.245Z,14.77
2022-08-19T15:38:59.207Z,14.85
2022-08-19T15:41:31.324Z,13.70
2022-08-19T15:46:32.121Z,10.52
2022-08-19T15:49:00.683Z,12.50
2022-08-19T15:51:33.302Z,14.02
2022-08-19T15:54:01.341Z,11.75
2022-08-19T15:56:47.613Z,14.48
2022-08-19T15:59:47.101Z,12.18
2022-08-19T16:02:34.942Z,13.25
2022-08-19T16:05:26.059Z,13.00
2022-08-19T16:07:54.832Z,12.98
2022-08-19T16:10:27.303Z,15.35
2022-08-19T16:12:56.923Z,13.25
2022-08-19T16:15:30.751Z,16.13
2022-08-19T16:17:59.053Z,13.90
2022-08-19T16:20:28.199Z,12.77
2022-08-19T16:22:58.659Z,13.52
2022-08-19T16:25:29.364Z,14.27
2022-08-19T16:28:06.264Z,12.20
2022-08-19T16:30:34.829Z,14.90
2022-08-19T16:33:03.358Z,15.35
2022-08-19T16:35:31.275Z,14.40
2022-08-19T16:37:58.773Z,13.75
2022-08-19T16:40:26.364Z,14.55
2022-08-19T16:42:53.991Z,14.10
2022-08-19T16:45:22.153Z,17.80
2022-08-19T16:47:50.373Z,13.50
2022-08-19T16:50:25.343Z,14.15
2022-08-19T16:53:01.037Z,12.05
2022-08-19T16:55:28.625Z,13.70
2022-08-19T16:57:57.744Z,14.48
2022-08-19T17:00:25.294Z,11.88
2022-08-19T17:02:54.173Z,13.82
2022-08-19T17:05:24.548Z,18.95
2022-08-19T17:07:57.165Z,11.85
2022-08-19T17:10:25.213Z,10.48
2022-08-19T17:12:55.794Z,11.52
2022-08-19T17:15:25.899Z,9.98
2022-08-19T17:17:54.073Z,8.90
2022-08-19T17:20:21.921Z,8.38
2022-08-19T17:22:49.615Z,9.93
2022-08-19T17:25:17.720Z,9.15
2022-08-19T17:27:45.448Z,8.57
2022-08-19T17:30:13.373Z,9.43
2022-08-19T17:32:40.901Z,8.50
2022-08-19T17:35:09.200Z,13.82
2022-08-19T17:37:37.747Z,9.18
2022-08-19T17:40:09.030Z,8.18
2022-08-19T17:42:37.091Z,9.30
2022-08-19T17:45:05.487Z,7.80
2022-08-19T17:47:33.467Z,8.88
2022-08-19T17:50:01.151Z,8.32
2022-08-19T17:52:29.061Z,8.27
2022-08-19T17:54:58.046Z,9.60
2022-08-19T17:57:26.263Z,6.45
2022-08-19T17:59:55.605Z,6.38
2022-08-19T18:02:25.514Z,8.50
2022-08-19T18:04:53.802Z,7.13
2022-08-19T18:07:21.865Z,7.32
2022-08-19T18:09:52.674Z,5.70
2022-08-19T18:12:27.928Z,6.03
2022-08-19T18:14:55.512Z,6.60
2022-08-19T18:17:23.826Z,5.88
2022-08-19T18:19:51.514Z,5.47
2022-08-19T18:22:27.366Z,6.78
2022-08-19T18:24:57.897Z,6.60
2022-08-19T18:27:27.343Z,6.35
2022-08-19T18:29:59.865Z,6.88
2022-08-19T18:32:35.297Z,6.07
2022-08-19T18:35:06.779Z,7.03
2022-08-19T18:37:34.792Z,6.25
2022-08-19T18:40:21.348Z,5.63
2022-08-19T18:43:08.175Z,5.40
2022-08-19T18:45:54.109Z,5.03
2022-08-19T18:48:41.336Z,7.32
2022-08-19T18:51:11.953Z,6.13
2022-08-19T18:53:41.698Z,7.13
2022-08-19T18:56:13.477Z,6.72
2022-08-19T18:58:42.549Z,8.80
2022-08-19T19:01:21.155Z,5.97
2022-08-19T19:03:53.902Z,9.77
2022-08-19T19:06:29.057Z,6.63
2022-08-19T19:08:57.795Z,6.90
2022-08-19T19:11:29.374Z,7.25
2022-08-19T19:13:57.477Z,9.77
2022-08-19T19:16:25.272Z,6.30
2022-08-19T19:18:54.316Z,6.57
2022-08-19T19:21:23.580Z,6.70
2022-08-19T19:23:53.359Z,5.35
2022-08-19T19:26:22.000Z,5.43
2022-08-19T19:28:49.763Z,5.28
2022-08-19T19:31:22.962Z,5.05
2022-08-19T19:33:50.787Z,5.88
2022-08-19T19:36:20.561Z,5.35
2022-08-19T19:38:50.284Z,5.10
2022-08-19T19:41:26.782Z,4.05
2022-08-19T19:44:29.909Z,5.47
2022-08-19T19:46:44.426Z,5.35
2022-08-19T19:49:12.580Z,7.03
2022-08-19T19:51:41.168Z,5.22
2022-08-19T19:54:13.939Z,7.25
2022-08-19T19:56:46.261Z,6.28
2022-08-19T20:01:47.182Z,7.30
2022-08-19T20:04:16.542Z,7.35
2022-08-19T20:06:45.620Z,7.82
2022-08-19T20:09:19.766Z,9.07
2022-08-19T20:11:53.497Z,6.95
2022-08-19T20:14:24.516Z,7.70
2022-08-19T20:16:53.672Z,9.65
2022-08-19T20:19:23.680Z,7.18
2022-08-19T20:21:51.596Z,6.03
2022-08-19T20:24:27.140Z,7.22
2022-08-19T20:26:55.009Z,7.55
2022-08-19T20:29:38.062Z,7.32
2022-08-19T20:32:07.333Z,8.05
2022-08-19T20:34:34.958Z,7.75
2022-08-19T20:37:03.354Z,7.90
2022-08-19T20:39:30.980Z,7.85
2022-08-19T20:41:58.535Z,9.13
2022-08-19T20:44:26.177Z,6.60
2022-08-19T20:46:57.520Z,7.72
2022-08-19T20:49:27.098Z,7.05
2022-08-19T20:51:56.799Z,9.75
2022-08-19T20:54:24.913Z,9.70
2022-08-19T20:56:53.263Z,8.90
2022-08-19T20:59:22.045Z,8.38
2022-08-19T21:01:53.620Z,7.28
2022-08-19T21:04:21.962Z,8.70
2022-08-19T21:06:55.922Z,7.63
2022-08-19T21:09:23.563Z,8.20
2022-08-19T21:11:54.308Z,6.50
2022-08-19T21:14:22.952Z,6.43
2022-08-19T21:16:54.510Z,5.55
2022-08-19T21:22:03.757Z,5.90
2022-08-19T21:24:32.009Z,6.13
2022-08-19T21:26:59.881Z,5.82
2022-08-19T21:29:27.510Z,6.18
2022-08-19T21:31:55.066Z,8.00
2022-08-19T21:34:22.535Z,4.35
2022-08-19T21:36:50.063Z,6.22
2022-08-19T21:39:17.761Z,5.95
2022-08-19T21:41:45.225Z,5.43
2022-08-19T21:44:12.888Z,5.97
2022-08-19T21:46:40.442Z,7.38
2022-08-19T21:49:07.939Z,3.80
2022-08-19T21:51:35.453Z,3.95
2022-08-19T21:54:02.924Z,4.55
2022-08-19T21:56:30.440Z,5.70
2022-08-19T21:58:58.549Z,5.90
2022-08-19T22:01:26.177Z,6.28
2022-08-19T22:03:53.676Z,5.43
2022-08-19T22:06:23.334Z,6.15
2022-08-19T22:08:50.873Z,5.82
2022-08-19T22:11:18.702Z,4.35
2022-08-19T22:13:46.230Z,7.55
2022-08-19T22:16:14.540Z,5.50
2022-08-19T22:18:42.262Z,5.55
2022-08-19T22:21:12.085Z,6.93
2022-08-19T22:23:41.396Z,4.72
2022-08-19T22:26:09.206Z,5.10
2022-08-19T22:28:36.844Z,5.93
2022-08-19T22:31:05.885Z,8.23
2022-08-19T22:33:34.361Z,7.30
2022-08-19T22:36:01.834Z,3.90
2022-08-19T22:38:29.472Z,6.38
2022-08-19T22:40:57.506Z,4.72
2022-08-19T22:43:30.407Z,7.97
2022-08-19T22:45:59.559Z,6.70
2022-08-19T22:48:29.883Z,6.30
2022-08-19T22:51:16.430Z,6.80
2022-08-19T22:53:47.001Z,6.65
2022-08-19T22:56:18.693Z,5.15
2022-08-19T22:58:49.949Z,8.77
2022-08-19T23:01:27.557Z,13.10
2022-08-19T23:03:59.466Z,6.28
2022-08-19T23:06:33.345Z,6.40
2022-08-19T23:09:08.133Z,4.40
2022-08-19T23:11:42.095Z,6.30
2022-08-19T23:14:11.526Z,5.15
2022-08-19T23:16:41.667Z,4.57
2022-08-19T23:19:10.201Z,5.93
2022-08-19T23:21:39.038Z,6.38
2022-08-19T23:24:06.806Z,5.95
2022-08-19T23:26:36.136Z,10.32
2022-08-19T23:29:23.844Z,6.03
2022-08-19T23:31:51.693Z,5.07
2022-08-19T23:34:19.187Z,6.82
2022-08-19T23:36:46.770Z,4.90
2022-08-19T23:39:14.350Z,4.95
2022-08-19T23:41:41.880Z,4.47
2022-08-19T23:44:10.054Z,3.53
2022-08-19T23:46:55.145Z,3.38
2022-08-19T23:49:24.531Z,5.50
2022-08-19T23:51:52.924Z,4.78
2022-08-19T23:54:20.594Z,5.85
2022-08-19T23:56:47.991Z,6.00
2022-08-19T23:59:15.800Z,5.75
